Delta Virtual Airport Information Service

Punta Cana International Airport

ICAO: MDPC Country: Dominican Republic
Latitude: 18.5674 Longitude: -68.3634
Latest Arrival : ROU1712 (CYYZ-MDPC) Latest Departure : AAL790 (1B) (MDPC-KPHL)


WX CaptureLIVE
Data provided by noaa.gov | Fetched at 00:56:13

METAR : MDPC 262000Z 10012KT 9999 SCT020 27/21 Q1016

TAF : MDPC 260400Z 2606/2706 08010KT 9999 FEW020


Runway Data for MDPC
Data provided by openaviationdata.com

Runway ID Mag Var Hdg Length Elevation Surface ILS Freq ILS Id ILS Slope
9 -12 96° 10171 ft 47 ft Asphalt -- -- --
27 -12 276° 10171 ft 47 ft Asphalt -- -- --

Punta Cana International Airport, Dominican Republic
Use only for reference purposes



Not for navigational purposes.